createdAt,value
2022-11-03T00:02:24.267Z,6.20
2022-11-03T00:04:53.075Z,6.20
2022-11-03T00:07:22.583Z,6.22
2022-11-03T00:09:51.258Z,6.20
2022-11-03T00:12:19.852Z,6.10
2022-11-03T00:14:48.444Z,6.10
2022-11-03T00:17:17.124Z,6.00
2022-11-03T00:19:45.708Z,5.94
2022-11-03T00:22:14.189Z,5.90
2022-11-03T00:24:42.671Z,5.90
2022-11-03T00:27:11.153Z,5.90
2022-11-03T00:29:39.739Z,5.90
2022-11-03T00:32:08.220Z,5.90
2022-11-03T00:34:37.010Z,5.90
2022-11-03T00:37:05.491Z,5.80
2022-11-03T00:39:34.076Z,5.80
2022-11-03T00:42:02.762Z,5.80
2022-11-03T00:44:31.348Z,5.82
2022-11-03T00:46:59.931Z,5.80
2022-11-03T00:49:28.516Z,5.78
2022-11-03T00:51:57.101Z,5.70
2022-11-03T00:54:25.687Z,5.70
2022-11-03T00:56:54.391Z,5.60
2022-11-03T00:59:23.062Z,5.60
2022-11-03T01:01:51.729Z,5.60
2022-11-03T01:04:39.172Z,5.60
2022-11-03T01:07:07.960Z,5.60
2022-11-03T01:09:43.610Z,5.60
2022-11-03T01:12:19.560Z,5.60
2022-11-03T01:14:51.926Z,5.60
2022-11-03T01:17:27.148Z,5.60
2022-11-03T01:19:56.148Z,5.50
2022-11-03T01:22:24.863Z,5.50
2022-11-03T01:24:53.446Z,5.50
2022-11-03T01:27:26.031Z,5.46
2022-11-03T01:29:54.611Z,5.40
2022-11-03T01:32:23.196Z,5.40
2022-11-03T01:34:51.675Z,5.40
2022-11-03T01:37:20.157Z,5.30
2022-11-03T01:39:48.854Z,5.30
2022-11-03T01:42:18.124Z,5.28
2022-11-03T01:44:49.051Z,5.26
2022-11-03T01:47:24.263Z,5.20
2022-11-03T01:50:20.782Z,5.20
2022-11-03T01:52:57.550Z,5.10
2022-11-03T01:55:36.593Z,5.10
2022-11-03T01:58:33.211Z,5.06
2022-11-03T02:01:02.883Z,5.00
2022-11-03T02:03:38.572Z,4.90
2022-11-03T02:06:08.388Z,4.90
2022-11-03T02:09:08.679Z,4.84
2022-11-03T02:11:57.472Z,4.80
2022-11-03T02:14:26.476Z,4.80
2022-11-03T02:16:59.575Z,4.80
2022-11-03T02:20:12.880Z,4.80
2022-11-03T02:23:01.651Z,4.80
2022-11-03T02:25:54.991Z,4.80
2022-11-03T02:28:31.696Z,4.80
2022-11-03T02:31:13.502Z,4.80
2022-11-03T02:34:00.157Z,4.80
2022-11-03T02:36:52.029Z,4.80
2022-11-03T02:39:46.842Z,4.80
2022-11-03T02:42:18.542Z,4.80
2022-11-03T02:44:49.007Z,4.80
2022-11-03T02:47:18.409Z,4.78
2022-11-03T02:49:50.181Z,4.80
2022-11-03T02:52:47.165Z,4.80
2022-11-03T02:55:38.030Z,4.80
2022-11-03T02:58:19.720Z,4.70
2022-11-03T03:01:15.184Z,4.70
2022-11-03T03:03:58.358Z,4.60
2022-11-03T03:06:49.376Z,4.60
2022-11-03T03:09:31.334Z,4.50
2022-11-03T03:12:03.091Z,4.50
2022-11-03T03:14:38.602Z,4.54
2022-11-03T03:17:50.984Z,4.50
2022-11-03T03:20:47.421Z,4.50
2022-11-03T03:23:23.934Z,4.40
2022-11-03T03:26:09.482Z,4.36
2022-11-03T03:28:50.280Z,4.30
2022-11-03T03:31:20.645Z,4.30
2022-11-03T03:33:59.739Z,4.30
2022-11-03T03:36:35.353Z,4.30
2022-11-03T03:39:08.189Z,4.30
2022-11-03T03:41:38.675Z,4.30
2022-11-03T03:44:09.904Z,4.30
2022-11-03T03:46:46.693Z,4.30
2022-11-03T03:49:15.477Z,4.20
2022-11-03T03:51:46.157Z,4.20
2022-11-03T03:54:14.591Z,4.20
2022-11-03T03:57:02.025Z,4.20
2022-11-03T03:59:31.011Z,4.20
2022-11-03T04:02:00.024Z,4.20
2022-11-03T04:04:29.683Z,4.20
2022-11-03T04:07:16.756Z,4.20
2022-11-03T04:09:45.319Z,4.20
2022-11-03T04:12:32.440Z,4.20
2022-11-03T04:15:19.863Z,4.20
2022-11-03T04:18:08.796Z,4.20
2022-11-03T04:20:56.559Z,4.10
2022-11-03T04:23:25.655Z,4.18
2022-11-03T04:25:56.869Z,4.10
2022-11-03T04:28:26.355Z,4.10
2022-11-03T04:30:59.884Z,4.08
2022-11-03T04:33:30.138Z,4.00
2022-11-03T04:36:00.754Z,4.00
2022-11-03T04:38:29.858Z,4.02
2022-11-03T04:40:59.401Z,4.10
2022-11-03T04:43:37.111Z,4.10
2022-11-03T04:46:10.742Z,4.10
2022-11-03T04:48:39.564Z,4.04
2022-11-03T04:51:18.689Z,4.10
2022-11-03T04:53:54.883Z,4.10
2022-11-03T04:56:25.999Z,4.00
2022-11-03T04:58:54.990Z,4.00
2022-11-03T05:01:25.157Z,3.98
2022-11-03T05:03:55.239Z,4.00
2022-11-03T05:06:30.020Z,4.00
2022-11-03T05:09:12.886Z,4.00
2022-11-03T05:11:46.908Z,4.10
2022-11-03T05:14:17.340Z,4.10
2022-11-03T05:16:47.760Z,4.10
2022-11-03T05:19:24.653Z,4.20
2022-11-03T05:21:55.882Z,4.20
2022-11-03T05:24:26.357Z,4.20
2022-11-03T05:26:58.291Z,4.20
2022-11-03T05:29:34.056Z,4.24
2022-11-03T05:32:02.702Z,4.30
2022-11-03T05:34:31.292Z,4.30
2022-11-03T05:37:06.330Z,4.30
2022-11-03T05:39:43.570Z,4.34
2022-11-03T05:42:30.421Z,4.40
2022-11-03T05:45:02.454Z,4.40
2022-11-03T05:47:39.236Z,4.40
2022-11-03T05:50:19.420Z,4.40
2022-11-03T05:52:51.765Z,4.40
2022-11-03T05:55:32.075Z,4.40
2022-11-03T05:58:12.516Z,4.40
2022-11-03T06:00:48.086Z,4.40
2022-11-03T06:03:23.314Z,4.40
2022-11-03T06:05:53.611Z,4.40
2022-11-03T06:08:26.695Z,4.40
2022-11-03T06:10:58.796Z,4.40
2022-11-03T06:13:33.494Z,4.40
2022-11-03T06:16:11.266Z,4.40
2022-11-03T06:18:40.102Z,4.40
2022-11-03T06:21:16.883Z,4.50
2022-11-03T06:23:45.668Z,4.50
2022-11-03T06:26:22.855Z,4.54
2022-11-03T06:28:51.848Z,4.60
2022-11-03T06:31:28.550Z,4.64
2022-11-03T06:33:59.153Z,4.70
2022-11-03T06:36:37.629Z,4.70
2022-11-03T06:39:26.650Z,4.70
2022-11-03T06:41:55.118Z,4.80
2022-11-03T06:44:31.179Z,4.90
2022-11-03T06:47:14.057Z,5.00
2022-11-03T06:49:43.564Z,5.10
2022-11-03T06:52:38.093Z,5.20
2022-11-03T06:55:15.646Z,5.38
2022-11-03T06:57:48.285Z,5.50
2022-11-03T07:00:34.729Z,5.60
2022-11-03T07:03:33.656Z,5.80
2022-11-03T07:06:25.702Z,5.90
2022-11-03T07:09:02.014Z,6.00
2022-11-03T07:11:35.034Z,6.10
2022-11-03T07:14:15.607Z,6.20
2022-11-03T07:16:57.932Z,6.30
2022-11-03T07:19:46.239Z,6.40
2022-11-03T07:22:24.515Z,6.48
2022-11-03T07:24:57.176Z,6.50
2022-11-03T07:27:37.403Z,6.60
2022-11-03T07:30:15.435Z,6.70
2022-11-03T07:32:44.015Z,6.80
2022-11-03T07:35:18.746Z,6.90
2022-11-03T07:37:50.707Z,7.00
2022-11-03T07:40:24.990Z,7.10
2022-11-03T07:42:59.447Z,7.30
2022-11-03T07:45:43.292Z,7.40
2022-11-03T07:48:45.770Z,7.60
2022-11-03T07:51:30.040Z,7.90
2022-11-03T07:54:31.066Z,8.24
2022-11-03T07:57:06.408Z,8.80
2022-11-03T07:59:42.982Z,9.28
2022-11-03T08:02:36.578Z,9.68
2022-11-03T08:05:06.280Z,10.00
2022-11-03T08:07:34.846Z,10.32
2022-11-03T08:10:04.222Z,10.50
2022-11-03T08:12:32.738Z,10.82
2022-11-03T08:15:01.525Z,11.20
2022-11-03T08:17:30.107Z,11.62
2022-11-03T08:19:58.793Z,12.00
2022-11-03T08:22:27.376Z,12.20
2022-11-03T08:24:55.960Z,12.48
2022-11-03T08:27:24.548Z,12.82
2022-11-03T08:29:54.173Z,13.14
2022-11-03T08:32:22.636Z,13.54
2022-11-03T08:34:51.220Z,13.82
2022-11-03T08:37:19.906Z,14.12
2022-11-03T08:39:48.645Z,14.40
2022-11-03T08:42:17.383Z,14.62
2022-11-03T08:44:45.967Z,14.90
2022-11-03T08:47:14.449Z,15.00
2022-11-03T08:49:43.034Z,15.10
2022-11-03T08:52:11.619Z,15.10
2022-11-03T08:54:40.412Z,15.20
2022-11-03T08:57:09.401Z,15.30
2022-11-03T08:59:38.805Z,15.50
2022-11-03T09:02:07.560Z,15.70
2022-11-03T09:04:36.470Z,15.80
2022-11-03T09:07:05.070Z,15.94
2022-11-03T09:12:22.617Z,15.90
2022-11-03T09:14:51.237Z,16.00
2022-11-03T09:17:19.887Z,16.20
2022-11-03T09:19:50.086Z,16.30
2022-11-03T09:22:19.105Z,16.30
2022-11-03T09:24:47.692Z,16.10
2022-11-03T09:27:16.278Z,15.98
2022-11-03T09:30:11.175Z,15.94
2022-11-03T09:32:34.075Z,16.08
2022-11-03T09:35:02.609Z,16.20
2022-11-03T09:37:31.296Z,16.40
2022-11-03T09:39:59.983Z,16.70
2022-11-03T09:42:29.184Z,17.00
2022-11-03T09:44:57.867Z,17.10
2022-11-03T09:47:35.772Z,17.10
2022-11-03T09:50:05.384Z,17.20
2022-11-03T09:52:36.729Z,17.30
2022-11-03T09:55:19.960Z,17.30
2022-11-03T09:57:48.754Z,17.46
2022-11-03T10:00:22.041Z,17.50
2022-11-03T10:02:51.306Z,17.60
2022-11-03T10:05:25.750Z,17.68
2022-11-03T10:08:03.237Z,17.80
2022-11-03T10:10:32.572Z,18.00
2022-11-03T10:13:02.175Z,18.00
2022-11-03T10:15:30.751Z,18.00
2022-11-03T10:17:59.336Z,17.90
2022-11-03T10:20:29.073Z,17.66
2022-11-03T10:22:57.529Z,17.40
2022-11-03T10:25:42.543Z,17.30
2022-11-03T10:28:26.981Z,17.20
2022-11-03T10:31:14.315Z,17.20
2022-11-03T10:33:54.888Z,17.10
2022-11-03T10:36:30.144Z,17.30
2022-11-03T10:38:59.303Z,17.40
2022-11-03T10:41:30.965Z,17.40
2022-11-03T10:44:13.244Z,17.18
2022-11-03T10:47:05.498Z,16.98
2022-11-03T10:49:40.825Z,16.90
2022-11-03T10:52:27.888Z,16.90
2022-11-03T10:54:59.705Z,17.00
2022-11-03T10:57:29.010Z,16.86
2022-11-03T10:59:58.449Z,16.82
2022-11-03T11:02:32.316Z,16.76
2022-11-03T11:05:03.754Z,16.70
2022-11-03T11:07:40.090Z,16.70
2022-11-03T11:10:24.611Z,16.80
2022-11-03T11:13:25.871Z,16.70
2022-11-03T11:16:03.092Z,16.60
2022-11-03T11:18:31.548Z,16.50
2022-11-03T11:21:00.820Z,16.56
2022-11-03T11:23:29.357Z,16.60
2022-11-03T11:26:09.902Z,16.60
2022-11-03T11:28:47.232Z,16.58
2022-11-03T11:31:30.327Z,16.48
2022-11-03T11:34:34.199Z,16.40
2022-11-03T11:37:04.001Z,16.40
2022-11-03T11:39:33.859Z,16.40
2022-11-03T11:42:12.648Z,16.38
2022-11-03T11:44:46.145Z,16.30
2022-11-03T11:47:49.762Z,16.40
2022-11-03T11:50:24.113Z,16.40
2022-11-03T11:53:11.937Z,16.30
2022-11-03T11:55:49.207Z,16.30
2022-11-03T11:58:46.728Z,16.24
2022-11-03T12:01:31.419Z,16.10
2022-11-03T12:04:27.032Z,15.90
2022-11-03T12:06:56.702Z,15.90
2022-11-03T12:09:28.630Z,15.90
2022-11-03T12:12:05.239Z,15.92
2022-11-03T12:14:39.395Z,16.10
2022-11-03T12:17:17.370Z,16.00
2022-11-03T12:19:50.598Z,16.00
2022-11-03T12:22:25.055Z,15.92
2022-11-03T12:25:07.129Z,15.82
2022-11-03T12:27:35.594Z,15.72
2022-11-03T12:30:16.286Z,15.70
2022-11-03T12:32:46.315Z,15.60
2022-11-03T12:35:15.517Z,15.60
2022-11-03T12:37:44.062Z,15.70
2022-11-03T12:40:14.630Z,15.60
2022-11-03T12:42:43.203Z,15.60
2022-11-03T12:45:13.978Z,15.50
2022-11-03T12:47:42.808Z,15.50
2022-11-03T12:50:11.723Z,15.50
2022-11-03T12:52:40.282Z,15.58
2022-11-03T12:55:09.712Z,15.60
2022-11-03T12:57:38.266Z,15.60
2022-11-03T13:00:08.295Z,15.52
2022-11-03T13:02:37.174Z,15.60
2022-11-03T13:05:07.263Z,15.70
2022-11-03T13:07:35.883Z,15.80
2022-11-03T13:10:05.142Z,15.84
2022-11-03T13:12:35.360Z,15.80
2022-11-03T13:15:07.741Z,15.80
2022-11-03T13:17:59.240Z,15.82
2022-11-03T13:20:24.843Z,15.80
2022-11-03T13:22:53.400Z,15.80
2022-11-03T13:25:24.636Z,15.80
2022-11-03T13:27:56.107Z,15.70
2022-11-03T13:30:27.672Z,15.60
2022-11-03T13:32:56.919Z,15.60
2022-11-03T13:35:25.674Z,15.50
2022-11-03T13:37:54.348Z,15.40
2022-11-03T13:43:12.105Z,15.30
2022-11-03T13:45:40.870Z,15.20
2022-11-03T13:49:04.094Z,15.20
2022-11-03T13:51:00.497Z,15.20
2022-11-03T13:56:21.882Z,15.20
2022-11-03T14:01:41.072Z,15.18
2022-11-03T14:06:59.252Z,15.10
2022-11-03T14:09:27.868Z,15.08
2022-11-03T14:12:15.376Z,15.00
2022-11-03T14:14:43.951Z,15.00
2022-11-03T14:17:12.734Z,14.90
2022-11-03T14:19:45.945Z,14.90
2022-11-03T14:22:16.207Z,14.80
2022-11-03T14:24:44.834Z,14.70
2022-11-03T14:27:13.622Z,14.60
2022-11-03T14:29:49.959Z,14.50
2022-11-03T14:32:19.760Z,14.40
2022-11-03T14:34:48.791Z,14.30
2022-11-03T14:37:17.846Z,14.20
2022-11-03T14:39:46.477Z,14.10
2022-11-03T14:42:16.837Z,14.10
2022-11-03T14:44:47.333Z,14.00
2022-11-03T14:47:19.264Z,13.90
2022-11-03T14:49:49.018Z,13.80
2022-11-03T14:52:18.519Z,13.80
2022-11-03T14:54:47.104Z,13.70
2022-11-03T14:57:15.682Z,13.60
2022-11-03T14:59:46.738Z,13.50
2022-11-03T15:02:17.782Z,13.40
2022-11-03T15:04:46.658Z,13.30
2022-11-03T15:07:15.140Z,13.30
2022-11-03T15:09:43.724Z,13.20
2022-11-03T15:12:12.213Z,13.10
2022-11-03T15:14:40.793Z,13.06
2022-11-03T15:17:09.273Z,13.00
2022-11-03T15:19:38.269Z,12.90
2022-11-03T15:22:07.043Z,12.80
2022-11-03T15:27:24.295Z,12.70
2022-11-03T15:29:52.880Z,12.70
2022-11-03T15:32:21.466Z,12.60
2022-11-03T15:34:50.153Z,12.50
2022-11-03T15:37:19.356Z,12.50
2022-11-03T15:39:47.939Z,12.40
2022-11-03T15:42:17.136Z,12.40
2022-11-03T15:44:46.090Z,12.38
2022-11-03T15:47:14.511Z,12.30
2022-11-03T15:49:45.142Z,12.30
2022-11-03T15:52:14.355Z,12.20
2022-11-03T15:54:42.922Z,12.20
2022-11-03T15:57:11.625Z,12.18
2022-11-03T15:59:40.604Z,12.10
2022-11-03T16:02:27.726Z,12.10
2022-11-03T16:05:02.866Z,12.00
2022-11-03T16:07:32.058Z,11.98
2022-11-03T16:10:00.803Z,11.90
2022-11-03T16:12:30.100Z,11.90
2022-11-03T16:14:59.168Z,11.80
2022-11-03T16:17:28.752Z,11.80
2022-11-03T16:19:57.348Z,11.70
2022-11-03T16:22:26.228Z,11.70
2022-11-03T16:24:55.637Z,11.70
2022-11-03T16:27:24.421Z,11.62
2022-11-03T16:29:56.083Z,11.60
2022-11-03T16:32:24.695Z,11.60
2022-11-03T16:34:54.212Z,11.52
2022-11-03T16:37:23.471Z,11.50
2022-11-03T16:39:52.156Z,11.50
2022-11-03T16:42:20.870Z,11.40
2022-11-03T16:44:49.635Z,11.40
2022-11-03T16:47:18.218Z,11.30
2022-11-03T16:49:46.982Z,11.30
2022-11-03T16:52:15.705Z,11.20
2022-11-03T16:54:44.759Z,11.20
2022-11-03T16:57:13.271Z,11.18
2022-11-03T16:59:41.963Z,11.20
2022-11-03T17:02:16.037Z,11.16
2022-11-03T17:04:45.172Z,11.10
2022-11-03T17:07:13.753Z,11.10
2022-11-03T17:09:42.542Z,11.10
2022-11-03T17:12:11.462Z,11.08
2022-11-03T17:14:40.028Z,11.08
2022-11-03T17:17:09.022Z,11.00
2022-11-03T17:19:38.208Z,11.00
2022-11-03T17:22:07.521Z,11.00
2022-11-03T17:24:36.424Z,11.00
2022-11-03T17:27:29.176Z,11.00
2022-11-03T17:30:15.378Z,11.00
2022-11-03T17:32:45.272Z,11.00
2022-11-03T17:35:38.904Z,11.00
2022-11-03T17:38:14.664Z,10.96
2022-11-03T17:40:46.796Z,10.94
2022-11-03T17:43:25.839Z,10.92
2022-11-03T17:45:54.680Z,10.90
2022-11-03T17:48:24.598Z,10.92
2022-11-03T17:50:56.577Z,10.98
2022-11-03T17:53:29.123Z,11.00
2022-11-03T17:58:48.938Z,11.02
2022-11-03T18:01:25.540Z,11.10
2022-11-03T18:03:54.625Z,11.12
2022-11-03T18:06:23.728Z,11.20
2022-11-03T18:08:52.598Z,11.20
2022-11-03T18:11:47.391Z,11.20
2022-11-03T18:14:16.339Z,11.20
2022-11-03T18:16:46.144Z,11.22
2022-11-03T18:19:18.032Z,11.30
2022-11-03T18:21:48.038Z,11.30
2022-11-03T18:24:19.783Z,11.30
2022-11-03T18:26:49.037Z,11.30
2022-11-03T18:29:18.060Z,11.30
2022-11-03T18:31:50.142Z,11.30
2022-11-03T18:34:25.987Z,11.30
2022-11-03T18:36:55.567Z,11.30
2022-11-03T18:39:28.164Z,11.30
2022-11-03T18:41:56.830Z,11.30
2022-11-03T18:44:30.572Z,11.30
2022-11-03T18:46:59.829Z,11.36
2022-11-03T18:49:30.881Z,11.40
2022-11-03T18:52:04.619Z,11.40
2022-11-03T18:54:35.528Z,11.40
2022-11-03T18:57:04.945Z,11.40
2022-11-03T18:59:38.991Z,11.40
2022-11-03T19:02:26.851Z,11.40
2022-11-03T19:04:55.557Z,11.40
2022-11-03T19:07:35.154Z,11.40
2022-11-03T19:10:15.151Z,11.40
2022-11-03T19:12:45.090Z,11.40
2022-11-03T19:15:18.920Z,11.40
2022-11-03T19:17:55.036Z,11.40
2022-11-03T19:20:25.779Z,11.40
2022-11-03T19:22:54.872Z,11.32
2022-11-03T19:25:24.022Z,11.30
2022-11-03T19:27:53.161Z,11.30
2022-11-03T19:30:22.170Z,11.30
2022-11-03T19:32:55.803Z,11.30
2022-11-03T19:35:32.554Z,11.30
2022-11-03T19:38:13.167Z,11.30
2022-11-03T19:41:02.701Z,11.30
2022-11-03T19:43:34.872Z,11.26
2022-11-03T19:46:05.245Z,11.20
2022-11-03T19:48:35.047Z,11.20
2022-11-03T19:56:27.157Z,11.20
2022-11-03T19:58:55.948Z,11.20
2022-11-03T20:01:24.525Z,11.20
2022-11-03T20:03:53.244Z,11.20
2022-11-03T20:06:21.903Z,11.20
2022-11-03T20:08:50.795Z,11.10
2022-11-03T20:11:20.141Z,11.10
2022-11-03T20:13:48.687Z,11.10
2022-11-03T20:16:17.982Z,11.10
2022-11-03T20:18:48.729Z,11.10
2022-11-03T20:21:20.309Z,11.10
2022-11-03T20:23:50.436Z,11.10
2022-11-03T20:26:23.720Z,11.10
2022-11-03T20:28:54.632Z,11.10
2022-11-03T20:31:23.370Z,11.10
2022-11-03T20:33:51.898Z,11.10
2022-11-03T20:36:21.406Z,11.10
2022-11-03T20:38:56.441Z,11.10
2022-11-03T20:41:27.876Z,11.00
2022-11-03T20:43:57.312Z,11.00
2022-11-03T20:46:29.225Z,11.00
2022-11-03T20:48:59.111Z,11.00
2022-11-03T20:51:34.118Z,11.00
2022-11-03T20:54:11.218Z,11.00
2022-11-03T20:56:40.081Z,11.00
2022-11-03T20:59:12.957Z,11.00
2022-11-03T21:01:42.115Z,11.00
2022-11-03T21:04:16.462Z,11.06
2022-11-03T21:06:45.694Z,11.08
2022-11-03T21:09:18.829Z,11.00
2022-11-03T21:11:55.230Z,11.00
2022-11-03T21:14:31.136Z,11.00
2022-11-03T21:17:18.524Z,11.00
2022-11-03T21:20:02.265Z,11.00
2022-11-03T21:22:57.943Z,11.00
2022-11-03T21:25:27.394Z,10.90
2022-11-03T21:27:55.974Z,10.90
2022-11-03T21:30:24.659Z,10.90
2022-11-03T21:32:53.457Z,10.84
2022-11-03T21:35:22.975Z,10.80
2022-11-03T21:37:51.951Z,10.80
2022-11-03T21:40:20.638Z,10.80
2022-11-03T21:43:08.490Z,10.80
2022-11-03T21:45:37.985Z,10.80
2022-11-03T21:48:26.223Z,10.80
2022-11-03T21:50:55.011Z,10.78
2022-11-03T21:53:24.010Z,10.70
2022-11-03T21:55:53.929Z,10.70
2022-11-03T21:58:22.509Z,10.70
2022-11-03T22:00:51.342Z,10.70
2022-11-03T22:03:20.089Z,10.70
2022-11-03T22:05:49.084Z,10.70
2022-11-03T22:08:17.766Z,10.70
2022-11-03T22:10:46.452Z,10.70
2022-11-03T22:13:15.139Z,10.70
2022-11-03T22:16:13.128Z,10.70
2022-11-03T22:18:42.005Z,10.70
2022-11-03T22:21:29.431Z,10.70
2022-11-03T22:24:16.755Z,10.70
2022-11-03T22:26:58.246Z,10.70
2022-11-03T22:29:45.589Z,10.72
2022-11-03T22:32:15.387Z,10.80
2022-11-03T22:35:02.906Z,10.80
2022-11-03T22:40:18.305Z,10.80
2022-11-03T22:43:05.825Z,10.80
2022-11-03T22:45:54.899Z,10.80
2022-11-03T22:48:27.776Z,10.80
2022-11-03T22:51:15.723Z,10.80
2022-11-03T22:54:03.585Z,10.80
2022-11-03T22:56:32.980Z,10.80
2022-11-03T22:59:02.055Z,10.80
2022-11-03T23:01:31.117Z,10.80
2022-11-03T23:04:01.430Z,10.80
2022-11-03T23:06:35.866Z,10.80
2022-11-03T23:09:05.735Z,10.80
2022-11-03T23:11:35.496Z,10.80
2022-11-03T23:14:10.770Z,10.80
2022-11-03T23:16:43.621Z,10.74
2022-11-03T23:19:34.371Z,10.70
2022-11-03T23:22:03.046Z,10.70
2022-11-03T23:24:50.367Z,10.70
2022-11-03T23:27:19.159Z,10.70
2022-11-03T23:29:48.097Z,10.70
2022-11-03T23:32:16.837Z,10.70
2022-11-03T23:34:45.600Z,10.62
2022-11-03T23:37:14.830Z,10.60
2022-11-03T23:39:43.414Z,10.60
2022-11-03T23:42:12.306Z,10.60
2022-11-03T23:45:00.068Z,10.50
2022-11-03T23:47:47.666Z,10.50
2022-11-03T23:50:16.457Z,10.50
2022-11-03T23:52:45.553Z,10.40
2022-11-03T23:55:14.651Z,10.40
2022-11-03T23:58:02.178Z,10.40
